Time,TemperatureF,DewpointF,PressureIn,WindDirection,WindDirectionDegrees,WindSpeedMPH,WindSpeedGustMPH,Humidity,HourlyPrecipIn,Conditions,Clouds,dailyrainin,SolarRadiationWatts/m^2,SoftwareType,DateUTC
2013-03-18 00:01:00,36.6,34.8,29.26,ESE,104,11.5,11.5,93,0.05,RA,,0.00,0.0,WeatherDisplay:10.37,2013-03-18 00:01:00,
2013-03-18 00:06:00,37.1,35.3,29.26,ESE,107,19.6,19.6,93,0.04,RA,,0.00,0.0,WeatherDisplay:10.37,2013-03-18 00:06:00,
2013-03-18 00:11:00,37.5,35.9,29.26,ESE,105,16.1,16.1,94,0.04,CLR,,0.00,0.0,WeatherDisplay:10.37,2013-03-18 00:11:00,
2013-03-18 00:16:00,37.8,36.0,29.26,SE,132,16.0,16.0,93,0.03,CLR,,0.00,0.0,WeatherDisplay:10.37,2013-03-18 00:16:00,
2013-03-18 00:21:00,38.0,36.2,29.26,ESE,107,13.8,13.8,93,0.03,CLR,,0.00,0.0,WeatherDisplay:10.37,2013-03-18 00:21:00,
2013-03-18 00:26:00,38.1,36.3,29.26,East,88,18.4,18.4,93,0.02,CLR,,0.00,0.0,WeatherDisplay:10.37,2013-03-18 00:26:00,
2013-03-18 00:31:00,38.2,36.4,29.26,ESE,109,19.6,19.6,93,0.02,CLR,,0.00,0.0,WeatherDisplay:10.37,2013-03-18 00:31:00,
2013-03-18 00:36:00,38.2,36.4,29.26,ESE,117,17.3,17.3,93,0.02,CLR,,0.00,0.0,WeatherDisplay:10.37,2013-03-18 00:36:00,
2013-03-18 00:41:00,38.3,36.5,29.26,East,87,12.7,12.7,93,0.01,CLR,,0.00,0.0,WeatherDisplay:10.37,2013-03-18 00:41:00,
2013-03-18 00:46:00,38.4,36.6,29.26,ESE,109,19.6,19.6,93,0.00,CLR,,0.00,0.0,WeatherDisplay:10.37,2013-03-18 00:46:00,
2013-03-18 00:51:00,38.4,36.6,29.26,ESE,108,16.1,16.1,93,0.00,CLR,,0.00,0.0,WeatherDisplay:10.37,2013-03-18 00:51:00,
2013-03-18 00:56:00,38.5,36.7,29.26,ESE,103,23.0,23.0,93,0.01,RA,,0.01,0.0,WeatherDisplay:10.37,2013-03-18 00:56:00,
2013-03-18 01:01:00,38.5,36.7,29.26,ESE,111,21.9,21.9,93,0.01,RA,,0.01,0.0,WeatherDisplay:10.37,2013-03-18 01:01:00,
2013-03-18 01:06:00,38.5,36.7,29.26,NE,49,16.1,16.1,93,0.01,,,0.01,0.0,WeatherDisplay:10.37,2013-03-18 01:06:00,
2013-03-18 01:11:00,38.6,36.5,29.27,ESE,104,16.1,16.1,92,0.01,CLR,,0.01,0.0,WeatherDisplay:10.37,2013-03-18 01:11:00,
2013-03-18 01:17:00,38.6,36.5,29.27,ESE,113,6.9,6.9,92,0.01,CLR,,0.01,0.0,WeatherDisplay:10.37,2013-03-18 01:17:00,
2013-03-18 01:22:00,38.6,36.5,29.27,ESE,103,19.6,19.6,92,0.01,CLR,,0.01,0.0,WeatherDisplay:10.37,2013-03-18 01:22:00,
2013-03-18 01:27:00,38.6,36.5,29.27,ESE,109,19.6,19.6,92,0.01,CLR,,0.01,0.0,WeatherDisplay:10.37,2013-03-18 01:27:00,
2013-03-18 01:32:00,38.6,36.8,29.27,ENE,61,20.7,20.7,93,0.01,CLR,,0.01,0.0,WeatherDisplay:10.37,2013-03-18 01:32:00,
2013-03-18 01:37:00,38.7,36.9,29.27,East,92,8.1,8.1,93,0.01,CLR,,0.01,0.0,WeatherDisplay:10.37,2013-03-18 01:37:00,
2013-03-18 01:42:00,38.7,36.9,29.28,East,86,20.7,20.7,93,0.01,CLR,,0.01,0.0,WeatherDisplay:10.37,2013-03-18 01:42:00,
2013-03-18 01:47:00,38.7,36.9,29.28,ESE,105,18.4,18.4,93,0.01,CLR,,0.01,0.0,WeatherDisplay:10.37,2013-03-18 01:47:00,
2013-03-18 01:52:00,38.7,36.9,29.28,ESE,113,19.6,19.6,93,0.01,CLR,,0.01,0.0,WeatherDisplay:10.37,2013-03-18 01:52:00,
2013-03-18 01:57:00,38.7,36.9,29.28,East,95,28.8,28.8,93,0.00,CLR,,0.01,0.0,WeatherDisplay:10.37,2013-03-18 01:57:00,
2013-03-18 02:02:00,38.8,36.9,29.28,ESE,108,23.0,23.0,93,0.00,CLR,,0.01,0.0,WeatherDisplay:10.37,2013-03-18 02:02:00,
2013-03-18 02:07:00,38.8,36.7,29.28,ESE,105,16.1,16.1,92,0.00,CLR,,0.01,0.0,WeatherDisplay:10.37,2013-03-18 02:07:00,
2013-03-18 02:12:00,38.8,36.7,29.28,ESE,115,21.9,21.9,92,0.00,CLR,,0.01,0.0,WeatherDisplay:10.37,2013-03-18 02:12:00,
2013-03-18 02:17:00,38.8,36.7,29.28,ENE,70,19.6,19.6,92,0.00,CLR,,0.01,0.0,WeatherDisplay:10.37,2013-03-18 02:17:00,
2013-03-18 02:22:00,38.8,36.7,29.28,East,86,26.5,26.5,92,0.00,CLR,,0.01,0.0,WeatherDisplay:10.37,2013-03-18 02:22:00,
2013-03-18 02:28:00,38.8,36.7,29.28,ESE,108,22.0,22.0,92,0.01,RA,,0.02,0.0,WeatherDisplay:10.37,2013-03-18 02:28:00,
2013-03-18 02:33:00,38.8,36.7,29.28,ESE,110,12.7,12.7,92,0.01,RA,,0.02,0.0,WeatherDisplay:10.37,2013-03-18 02:33:00,
2013-03-18 02:38:00,38.8,36.7,29.28,NE,56,19.6,19.6,92,0.01,CLR,,0.02,0.0,WeatherDisplay:10.37,2013-03-18 02:38:00,
2013-03-18 02:43:00,38.7,36.6,29.28,ESE,105,19.0,19.0,92,0.01,CLR,,0.02,0.0,WeatherDisplay:10.37,2013-03-18 02:43:00,
2013-03-18 02:48:00,38.6,36.5,29.28,SE,136,19.6,19.6,92,0.02,RA,,0.02,0.0,WeatherDisplay:10.37,2013-03-18 02:48:00,
2013-03-18 02:53:00,38.6,36.5,29.29,ESE,104,20.7,20.7,92,0.02,RA,,0.02,0.0,WeatherDisplay:10.37,2013-03-18 02:53:00,
2013-03-18 02:58:00,38.5,36.4,29.29,ESE,114,21.9,21.9,92,0.02,RA,,0.03,0.0,WeatherDisplay:10.37,2013-03-18 02:58:00,
2013-03-18 03:03:00,38.5,36.4,29.29,East,94,12.7,12.7,92,0.02,RA,,0.03,0.0,WeatherDisplay:10.37,2013-03-18 03:03:00,
2013-03-18 03:08:00,38.5,36.4,29.29,ESE,109,21.9,21.9,92,0.02,CLR,,0.03,0.0,WeatherDisplay:10.37,2013-03-18 03:08:00,
2013-03-18 03:13:00,38.5,36.4,29.29,ESE,107,11.5,11.5,92,0.02,CLR,,0.03,0.0,WeatherDisplay:10.37,2013-03-18 03:13:00,
2013-03-18 03:18:00,38.6,36.5,29.29,East,86,15.0,15.0,92,0.02,CLR,,0.03,0.0,WeatherDisplay:10.37,2013-03-18 03:18:00,
2013-03-18 03:23:00,38.6,36.5,29.29,NE,40,15.0,15.0,92,0.02,CLR,,0.03,0.0,WeatherDisplay:10.37,2013-03-18 03:23:00,
2013-03-18 03:28:00,38.6,36.5,29.29,ESE,105,23.0,23.0,92,0.02,CLR,,0.03,0.0,WeatherDisplay:10.37,2013-03-18 03:28:00,
2013-03-18 03:33:00,38.6,36.5,29.29,SSE,161,24.2,24.2,92,0.02,CLR,,0.03,0.0,WeatherDisplay:10.37,2013-03-18 03:33:00,
2013-03-18 03:38:00,38.5,36.4,29.29,ESE,114,17.0,17.0,92,0.02,CLR,,0.03,0.0,WeatherDisplay:10.37,2013-03-18 03:38:00,
2013-03-18 03:43:00,38.5,36.4,29.29,ESE,107,19.6,19.6,92,0.02,CLR,,0.03,0.0,WeatherDisplay:10.37,2013-03-18 03:43:00,
2013-03-18 03:48:00,38.5,36.4,29.30,ESE,117,19.6,19.6,92,0.01,CLR,,0.04,0.0,WeatherDisplay:10.37,2013-03-18 03:48:00,
2013-03-18 03:53:00,38.4,36.3,29.30,East,101,21.9,21.9,92,0.02,RA,,0.04,0.0,WeatherDisplay:10.37,2013-03-18 03:53:00,
2013-03-18 03:58:00,38.4,36.3,29.30,ESE,117,18.4,18.4,92,0.02,RA,,0.05,0.0,WeatherDisplay:10.37,2013-03-18 03:58:00,
2013-03-18 04:00:00,38.3,36.2,29.30,ESE,111,22.0,22.0,92,0.02,RA,,0.05,0.0,WeatherDisplay:10.37,2013-03-18 04:00:00,
2013-03-18 04:01:00,38.3,36.2,29.30,ESE,118,15.0,15.0,92,0.02,RA,,0.06,0.0,WeatherDisplay:10.37,2013-03-18 04:01:00,
2013-03-18 04:06:00,38.2,35.8,29.30,ESE,123,15.0,15.0,91,0.03,RA,,0.06,0.0,WeatherDisplay:10.37,2013-03-18 04:06:00,
2013-03-18 04:11:00,38.2,36.1,29.30,ESE,103,12.7,12.7,92,0.04,RA,,0.07,0.0,WeatherDisplay:10.37,2013-03-18 04:11:00,
2013-03-18 04:16:00,38.3,36.2,29.30,ESE,107,19.6,19.6,92,0.05,RA,,0.08,0.0,WeatherDisplay:10.37,2013-03-18 04:16:00,
2013-03-18 04:21:00,38.4,36.3,29.30,ESE,119,23.0,23.0,92,0.05,RA,,0.08,0.0,WeatherDisplay:10.37,2013-03-18 04:21:00,
2013-03-18 04:26:00,38.5,36.4,29.30,ESE,117,15.0,15.0,92,0.05,,,0.08,0.0,WeatherDisplay:10.37,2013-03-18 04:26:00,
2013-03-18 04:31:00,38.5,36.4,29.30,SE,129,21.9,21.9,92,0.06,RA,,0.09,0.0,WeatherDisplay:10.37,2013-03-18 04:31:00,
2013-03-18 04:36:00,38.6,36.5,29.31,East,94,17.3,17.3,92,0.06,RA,,0.09,0.0,WeatherDisplay:10.37,2013-03-18 04:36:00,
2013-03-18 04:41:00,38.5,36.4,29.31,East,82,23.0,23.0,92,0.06,CLR,,0.09,0.0,WeatherDisplay:10.37,2013-03-18 04:41:00,
2013-03-18 04:46:00,38.5,36.4,29.31,ESE,109,23.0,23.0,92,0.06,CLR,,0.09,0.0,WeatherDisplay:10.37,2013-03-18 04:46:00,
2013-03-18 04:51:00,38.5,36.4,29.31,East,79,19.6,19.6,92,0.05,CLR,,0.09,0.0,WeatherDisplay:10.37,2013-03-18 04:51:00,
2013-03-18 04:56:00,38.5,36.1,29.31,SE,138,23.0,23.0,91,0.04,CLR,,0.09,0.0,WeatherDisplay:10.37,2013-03-18 04:56:00,
2013-03-18 05:02:00,38.5,36.4,29.31,ESE,111,23.0,23.0,92,0.03,CLR,,0.09,0.0,WeatherDisplay:10.37,2013-03-18 05:02:00,
2013-03-18 05:07:00,38.4,36.3,29.31,ESE,121,16.1,16.1,92,0.02,CLR,,0.09,0.0,WeatherDisplay:10.37,2013-03-18 05:07:00,
2013-03-18 05:12:00,38.4,36.3,29.32,East,86,19.6,19.6,92,0.02,CLR,,0.09,0.0,WeatherDisplay:10.37,2013-03-18 05:12:00,
2013-03-18 05:17:00,38.4,36.0,29.32,ENE,75,19.6,19.6,91,0.01,CLR,,0.09,0.0,WeatherDisplay:10.37,2013-03-18 05:17:00,
2013-03-18 05:22:00,38.4,36.0,29.32,SE,136,24.2,24.2,91,0.01,CLR,,0.09,0.0,WeatherDisplay:10.37,2013-03-18 05:22:00,
2013-03-18 05:27:00,38.4,36.0,29.32,East,90,16.1,16.1,91,0.01,CLR,,0.09,0.0,WeatherDisplay:10.37,2013-03-18 05:27:00,
2013-03-18 05:32:00,38.4,36.0,29.33,ESE,114,18.4,18.4,91,0.00,CLR,,0.09,0.0,WeatherDisplay:10.37,2013-03-18 05:32:00,
2013-03-18 05:37:00,38.3,35.9,29.33,East,101,17.3,17.3,91,0.00,CLR,,0.09,0.0,WeatherDisplay:10.37,2013-03-18 05:37:00,
2013-03-18 05:42:00,38.3,35.9,29.33,East,84,21.9,21.9,91,0.00,CLR,,0.09,0.0,WeatherDisplay:10.37,2013-03-18 05:42:00,
2013-03-18 05:47:00,38.2,35.8,29.34,ESE,113,21.0,21.0,91,0.00,CLR,,0.09,0.0,WeatherDisplay:10.37,2013-03-18 05:47:00,
2013-03-18 05:52:00,38.2,35.8,29.34,ENE,57,24.2,24.2,91,0.00,CLR,,0.09,0.0,WeatherDisplay:10.37,2013-03-18 05:52:00,
2013-03-18 05:58:00,38.2,35.8,29.34,ESE,121,18.4,18.4,91,0.00,CLR,,0.09,0.0,WeatherDisplay:10.37,2013-03-18 05:58:00,
2013-03-18 06:03:00,38.1,35.7,29.34,ESE,113,19.6,19.6,91,0.00,OVC,,0.09,0.0,WeatherDisplay:10.37,2013-03-18 06:03:00,
2013-03-18 06:08:00,38.2,35.8,29.34,ESE,111,16.1,16.1,91,0.00,OVC,,0.09,0.0,WeatherDisplay:10.37,2013-03-18 06:08:00,
2013-03-18 06:13:00,38.2,35.8,29.34,ESE,121,19.6,19.6,91,0.00,OVC,,0.09,0.0,WeatherDisplay:10.37,2013-03-18 06:13:00,
2013-03-18 06:18:00,38.1,35.7,29.34,East,96,34.5,34.5,91,0.00,OVC,,0.09,0.0,WeatherDisplay:10.37,2013-03-18 06:18:00,
2013-03-18 06:23:00,38.2,35.8,29.35,East,98,18.4,18.4,91,0.00,OVC,,0.09,0.0,WeatherDisplay:10.37,2013-03-18 06:23:00,
2013-03-18 06:28:00,38.2,35.8,29.34,ENE,76,12.7,12.7,91,0.00,OVC,,0.09,0.0,WeatherDisplay:10.37,2013-03-18 06:28:00,
2013-03-18 06:33:00,38.1,35.7,29.35,ESE,111,23.0,23.0,91,0.00,OVC,,0.09,0.0,WeatherDisplay:10.37,2013-03-18 06:33:00,
2013-03-18 06:38:00,38.1,35.7,29.35,ESE,111,11.5,11.5,91,0.00,OVC,,0.09,0.0,WeatherDisplay:10.37,2013-03-18 06:38:00,
2013-03-18 06:43:00,38.1,35.7,29.35,East,81,24.2,24.2,91,0.00,OVC,,0.09,0.0,WeatherDisplay:10.37,2013-03-18 06:43:00,
2013-03-18 06:48:00,38.1,35.7,29.35,ESE,117,19.6,19.6,91,0.00,OVC,,0.09,0.0,WeatherDisplay:10.37,2013-03-18 06:48:00,
2013-03-18 06:53:00,38.1,35.4,29.35,ESE,114,11.5,11.5,90,0.00,OVC,,0.09,0.0,WeatherDisplay:10.37,2013-03-18 06:53:00,
2013-03-18 06:58:00,38.1,35.7,29.35,East,90,18.4,18.4,91,0.00,BKN,,0.09,7.0,WeatherDisplay:10.37,2013-03-18 06:58:00,
2013-03-18 07:03:00,38.1,35.4,29.36,ESE,115,26.5,26.5,90,0.00,BKN,,0.09,9.0,WeatherDisplay:10.37,2013-03-18 07:03:00,
2013-03-18 07:08:00,38.0,35.3,29.36,East,96,27.6,27.6,90,0.00,BKN,,0.09,12.0,WeatherDisplay:10.37,2013-03-18 07:08:00,
2013-03-18 07:13:00,38.0,35.3,29.36,ESE,117,18.4,18.4,90,0.00,BKN,,0.09,12.0,WeatherDisplay:10.37,2013-03-18 07:13:00,
2013-03-18 07:18:00,37.9,35.2,29.36,ESE,116,19.6,19.6,90,0.00,BKN,,0.09,23.0,WeatherDisplay:10.37,2013-03-18 07:18:00,
2013-03-18 07:23:00,37.9,35.2,29.36,ESE,104,28.0,28.0,90,0.00,BKN,,0.09,28.0,WeatherDisplay:10.37,2013-03-18 07:23:00,
2013-03-18 07:28:00,37.9,35.2,29.36,ESE,113,17.3,17.3,90,0.00,BKN,,0.09,30.0,WeatherDisplay:10.37,2013-03-18 07:28:00,
2013-03-18 07:33:00,37.9,35.2,29.36,ESE,113,26.5,26.5,90,0.00,BKN,,0.09,25.0,WeatherDisplay:10.37,2013-03-18 07:33:00,
2013-03-18 07:38:00,37.9,35.2,29.37,ESE,109,15.0,15.0,90,0.00,BKN,,0.09,21.0,WeatherDisplay:10.37,2013-03-18 07:38:00,
2013-03-18 07:43:00,37.9,35.2,29.37,ESE,109,21.9,21.9,90,0.00,BKN,,0.09,23.0,WeatherDisplay:10.37,2013-03-18 07:43:00,
2013-03-18 07:48:00,37.9,34.9,29.37,ESE,120,13.8,13.8,89,0.00,BKN,,0.09,16.0,WeatherDisplay:10.37,2013-03-18 07:48:00,
2013-03-18 07:53:00,38.0,35.3,29.38,East,95,16.1,16.1,90,0.00,BKN,,0.09,19.0,WeatherDisplay:10.37,2013-03-18 07:53:00,
2013-03-18 07:58:00,38.0,35.0,29.37,SE,129,20.0,20.0,89,0.00,BKN,,0.09,16.0,WeatherDisplay:10.37,2013-03-18 07:58:00,
2013-03-18 08:03:00,37.9,34.9,29.38,East,96,28.8,28.8,89,0.00,BKN,,0.09,21.0,WeatherDisplay:10.37,2013-03-18 08:03:00,
2013-03-18 08:08:00,37.9,34.9,29.38,ESE,118,16.1,16.1,89,0.00,BKN,,0.09,28.0,WeatherDisplay:10.37,2013-03-18 08:08:00,
2013-03-18 08:13:00,38.0,34.8,29.38,East,79,24.2,24.2,88,0.00,BKN,,0.09,21.0,WeatherDisplay:10.37,2013-03-18 08:13:00,
2013-03-18 08:18:00,37.9,34.7,29.38,ESE,113,20.7,20.7,88,0.00,BKN,,0.09,23.0,WeatherDisplay:10.37,2013-03-18 08:18:00,
2013-03-18 08:23:00,37.9,34.7,29.38,ESE,111,19.6,19.6,88,0.00,BKN,,0.09,25.0,WeatherDisplay:10.37,2013-03-18 08:23:00,
2013-03-18 08:28:00,37.9,34.7,29.39,ESE,109,19.6,19.6,88,0.00,BKN,,0.09,14.0,WeatherDisplay:10.37,2013-03-18 08:28:00,
2013-03-18 08:33:00,37.9,34.7,29.39,East,84,17.3,17.3,88,0.00,OVC,,0.09,16.0,WeatherDisplay:10.37,2013-03-18 08:33:00,
2013-03-18 08:38:00,37.9,34.7,29.39,ESE,112,13.8,13.8,88,0.00,OVC,,0.09,21.0,WeatherDisplay:10.37,2013-03-18 08:38:00,
2013-03-18 08:44:00,37.8,34.3,29.39,ESE,103,19.6,19.6,87,0.00,OVC,,0.09,25.0,WeatherDisplay:10.37,2013-03-18 08:44:00,
2013-03-18 08:49:00,37.8,34.0,29.39,ESE,111,21.9,21.9,86,0.00,OVC,,0.09,30.0,WeatherDisplay:10.37,2013-03-18 08:49:00,
2013-03-18 08:54:00,37.8,34.0,29.39,ESE,111,24.0,24.0,86,0.00,OVC,,0.09,21.0,WeatherDisplay:10.37,2013-03-18 08:54:00,
2013-03-18 08:59:00,37.8,33.7,29.40,ESE,106,27.6,27.6,85,0.00,OVC,,0.09,19.0,WeatherDisplay:10.37,2013-03-18 08:59:00,
2013-03-18 09:04:00,37.8,34.0,29.40,ESE,116,12.7,12.7,86,0.00,OVC,,0.09,23.0,WeatherDisplay:10.37,2013-03-18 09:04:00,
2013-03-18 09:09:00,37.8,34.0,29.40,SE,128,19.6,19.6,86,0.00,OVC,,0.09,28.0,WeatherDisplay:10.37,2013-03-18 09:09:00,
2013-03-18 09:14:00,37.8,33.7,29.40,ENE,57,32.2,32.2,85,0.00,OVC,,0.09,26.0,WeatherDisplay:10.37,2013-03-18 09:14:00,
2013-03-18 09:19:00,37.8,34.0,29.40,East,87,17.3,17.3,86,0.00,OVC,,0.09,28.0,WeatherDisplay:10.37,2013-03-18 09:19:00,
2013-03-18 09:24:00,37.8,34.0,29.41,SE,135,23.0,23.0,86,0.00,OVC,,0.09,37.0,WeatherDisplay:10.37,2013-03-18 09:24:00,
2013-03-18 09:29:00,37.7,33.9,29.41,SE,135,15.0,15.0,86,0.00,OVC,,0.09,40.0,WeatherDisplay:10.37,2013-03-18 09:29:00,
2013-03-18 09:34:00,37.6,33.8,29.41,ESE,123,13.8,13.8,86,0.00,OVC,,0.09,30.0,WeatherDisplay:10.37,2013-03-18 09:34:00,
2013-03-18 09:39:00,37.6,33.8,29.41,East,95,18.4,18.4,86,0.00,OVC,,0.09,33.0,WeatherDisplay:10.37,2013-03-18 09:39:00,
2013-03-18 09:44:00,37.5,33.7,29.41,ESE,104,18.4,18.4,86,0.00,OVC,,0.09,32.0,WeatherDisplay:10.37,2013-03-18 09:44:00,
2013-03-18 09:49:00,37.4,33.9,29.41,East,95,20.7,20.7,87,0.00,OVC,,0.09,30.0,WeatherDisplay:10.37,2013-03-18 09:49:00,
2013-03-18 09:54:00,37.2,33.7,29.41,East,86,23.0,23.0,87,0.00,OVC,,0.09,19.0,WeatherDisplay:10.37,2013-03-18 09:54:00,
2013-03-18 09:59:00,37.0,33.5,29.41,East,90,19.6,19.6,87,0.00,OVC,,0.09,25.0,WeatherDisplay:10.37,2013-03-18 09:59:00,
2013-03-18 10:04:00,36.9,33.7,29.42,ESE,109,17.3,17.3,88,0.00,OVC,,0.09,14.0,WeatherDisplay:10.37,2013-03-18 10:04:00,
2013-03-18 10:09:00,36.8,33.6,29.42,SE,131,12.0,12.0,88,0.00,OVC,,0.09,26.0,WeatherDisplay:10.37,2013-03-18 10:09:00,
2013-03-18 10:14:00,36.8,33.6,29.42,East,101,12.7,12.7,88,0.00,OVC,,0.09,21.0,WeatherDisplay:10.37,2013-03-18 10:14:00,
2013-03-18 10:19:00,36.7,33.5,29.42,SSE,150,21.9,21.9,88,0.00,OVC,,0.09,25.0,WeatherDisplay:10.37,2013-03-18 10:19:00,
2013-03-18 10:24:00,36.7,33.2,29.42,ESE,106,12.7,12.7,87,0.00,OVC,,0.09,28.0,WeatherDisplay:10.37,2013-03-18 10:24:00,
2013-03-18 10:29:00,36.7,33.5,29.42,ESE,119,12.7,12.7,88,0.00,OVC,,0.09,32.0,WeatherDisplay:10.37,2013-03-18 10:29:00,
2013-03-18 10:34:00,36.7,33.2,29.42,ENE,78,19.6,19.6,87,0.00,OVC,,0.09,16.0,WeatherDisplay:10.37,2013-03-18 10:34:00,
2013-03-18 10:39:00,36.7,33.2,29.43,ESE,109,15.0,15.0,87,0.00,OVC,,0.09,19.0,WeatherDisplay:10.37,2013-03-18 10:39:00,
2013-03-18 10:44:00,36.7,33.2,29.42,East,92,13.8,13.8,87,0.00,OVC,,0.09,21.0,WeatherDisplay:10.37,2013-03-18 10:44:00,
2013-03-18 10:49:00,36.7,33.5,29.43,East,96,6.9,6.9,88,0.00,OVC,,0.09,18.0,WeatherDisplay:10.37,2013-03-18 10:49:00,
2013-03-18 10:54:00,36.7,33.5,29.43,ENE,59,11.5,11.5,88,0.00,OVC,,0.09,16.0,WeatherDisplay:10.37,2013-03-18 10:54:00,
2013-03-18 10:59:00,36.7,33.5,29.43,ENE,67,9.2,9.2,88,0.00,OVC,,0.09,16.0,WeatherDisplay:10.37,2013-03-18 10:59:00,
2013-03-18 11:04:00,36.6,33.7,29.43,East,92,6.0,6.0,89,0.01,RA,,0.09,19.0,WeatherDisplay:10.37,2013-03-18 11:04:00,
2013-03-18 11:09:00,36.6,33.7,29.43,ESE,117,15.0,15.0,89,0.01,RA,,0.09,18.0,WeatherDisplay:10.37,2013-03-18 11:09:00,
2013-03-18 11:14:00,36.4,33.5,29.44,East,95,6.9,6.9,89,0.01,OVC,,0.09,23.0,WeatherDisplay:10.37,2013-03-18 11:14:00,
2013-03-18 11:19:00,36.3,33.4,29.43,ESE,107,15.0,15.0,89,0.01,OVC,,0.09,26.0,WeatherDisplay:10.37,2013-03-18 11:19:00,
2013-03-18 11:24:00,36.3,33.4,29.44,SE,134,5.8,5.8,89,0.01,OVC,,0.09,35.0,WeatherDisplay:10.37,2013-03-18 11:24:00,
2013-03-18 11:29:00,36.2,33.3,29.43,ESE,112,19.6,19.6,89,0.01,OVC,,0.10,46.0,WeatherDisplay:10.37,2013-03-18 11:29:00,
2013-03-18 11:34:00,36.1,33.2,29.44,ESE,113,17.3,17.3,89,0.02,RA,,0.10,30.0,WeatherDisplay:10.37,2013-03-18 11:34:00,
2013-03-18 11:39:00,36.1,33.2,29.44,East,96,13.8,13.8,89,0.02,RA,,0.10,21.0,WeatherDisplay:10.37,2013-03-18 11:39:00,
2013-03-18 11:44:00,36.1,33.2,29.45,East,92,18.0,18.0,89,0.02,OVC,,0.10,32.0,WeatherDisplay:10.37,2013-03-18 11:44:00,
2013-03-18 11:49:00,36.0,33.1,29.45,SE,140,19.6,19.6,89,0.02,OVC,,0.10,14.0,WeatherDisplay:10.37,2013-03-18 11:49:00,
2013-03-18 11:54:00,36.0,33.1,29.45,SE,125,24.2,24.2,89,0.02,OVC,,0.10,56.0,WeatherDisplay:10.37,2013-03-18 11:54:00,
2013-03-18 11:59:00,35.9,33.0,29.45,ESE,120,21.9,21.9,89,0.02,RA,,0.11,44.0,WeatherDisplay:10.37,2013-03-18 11:59:00,
2013-03-18 12:04:00,35.8,32.9,29.45,East,83,25.0,25.0,89,0.02,RA,,0.11,62.0,WeatherDisplay:10.37,2013-03-18 12:04:00,
2013-03-18 12:09:00,35.8,33.2,29.45,ESE,118,11.5,11.5,90,0.02,OVC,,0.11,51.0,WeatherDisplay:10.37,2013-03-18 12:09:00,
2013-03-18 12:14:00,35.8,33.2,29.45,ESE,117,17.3,17.3,90,0.02,OVC,,0.11,26.0,WeatherDisplay:10.37,2013-03-18 12:14:00,
2013-03-18 12:19:00,35.8,33.2,29.45,ESE,115,13.0,13.0,90,0.02,OVC,,0.11,28.0,WeatherDisplay:10.37,2013-03-18 12:19:00,
2013-03-18 12:24:00,35.7,33.1,29.45,East,86,11.5,11.5,90,0.02,OVC,,0.11,30.0,WeatherDisplay:10.37,2013-03-18 12:24:00,
2013-03-18 12:29:00,35.7,33.1,29.45,NE,51,5.8,5.8,90,0.02,OVC,,0.11,42.0,WeatherDisplay:10.37,2013-03-18 12:29:00,
2013-03-18 12:34:00,35.6,33.0,29.46,East,82,13.8,13.8,90,0.02,RA,,0.12,35.0,WeatherDisplay:10.37,2013-03-18 12:34:00,
2013-03-18 12:39:00,35.6,33.0,29.46,ESE,103,13.8,13.8,90,0.02,RA,,0.12,37.0,WeatherDisplay:10.37,2013-03-18 12:39:00,
2013-03-18 12:44:00,35.6,33.0,29.46,East,96,5.8,5.8,90,0.02,OVC,,0.12,30.0,WeatherDisplay:10.37,2013-03-18 12:44:00,
2013-03-18 12:49:00,35.5,32.9,29.46,East,95,9.2,9.2,90,0.02,OVC,,0.12,21.0,WeatherDisplay:10.37,2013-03-18 12:49:00,
2013-03-18 12:54:00,35.5,32.9,29.46,ESE,113,6.9,6.9,90,0.02,OVC,,0.12,21.0,WeatherDisplay:10.37,2013-03-18 12:54:00,
2013-03-18 12:59:00,35.5,32.9,29.46,NE,55,9.2,9.2,90,0.01,OVC,,0.12,14.0,WeatherDisplay:10.37,2013-03-18 12:59:00,
2013-03-18 13:04:00,35.5,32.9,29.46,NE,36,10.4,10.4,90,0.01,OVC,,0.12,14.0,WeatherDisplay:10.37,2013-03-18 13:04:00,
2013-03-18 13:09:00,35.4,32.8,29.46,ESE,120,11.5,11.5,90,0.02,RA,,0.13,21.0,WeatherDisplay:10.37,2013-03-18 13:09:00,
2013-03-18 13:14:00,35.4,32.8,29.46,ESE,115,13.8,13.8,90,0.02,RA,,0.13,18.0,WeatherDisplay:10.37,2013-03-18 13:14:00,
2013-03-18 13:19:00,35.4,32.8,29.46,ESE,113,5.8,5.8,90,0.02,OVC,,0.13,25.0,WeatherDisplay:10.37,2013-03-18 13:19:00,
2013-03-18 13:24:00,35.5,32.9,29.47,ESE,114,11.0,11.0,90,0.02,OVC,,0.13,19.0,WeatherDisplay:10.37,2013-03-18 13:24:00,
2013-03-18 13:29:00,35.4,32.5,29.47,East,87,11.5,11.5,89,0.02,OVC,,0.13,28.0,WeatherDisplay:10.37,2013-03-18 13:29:00,
2013-03-18 13:34:00,35.4,32.8,29.47,East,98,11.5,11.5,90,0.01,OVC,,0.13,21.0,WeatherDisplay:10.37,2013-03-18 13:34:00,
2013-03-18 13:39:00,35.3,32.4,29.47,ENE,65,20.7,20.7,89,0.01,OVC,,0.13,32.0,WeatherDisplay:10.37,2013-03-18 13:39:00,
2013-03-18 13:44:00,35.3,32.4,29.47,ESE,105,10.4,10.4,89,0.01,OVC,,0.13,21.0,WeatherDisplay:10.37,2013-03-18 13:44:00,
2013-03-18 13:50:00,35.4,32.5,29.47,SE,127,19.6,19.6,89,0.01,OVC,,0.13,32.0,WeatherDisplay:10.37,2013-03-18 13:50:00,
2013-03-18 13:55:00,35.4,32.5,29.47,ESE,111,10.4,10.4,89,0.01,OVC,,0.13,40.0,WeatherDisplay:10.37,2013-03-18 13:55:00,
2013-03-18 14:00:00,35.4,32.5,29.47,East,79,6.9,6.9,89,0.01,OVC,,0.13,28.0,WeatherDisplay:10.37,2013-03-18 14:00:00,
2013-03-18 14:05:00,35.4,32.5,29.47,East,98,10.4,10.4,89,0.01,OVC,,0.13,79.0,WeatherDisplay:10.37,2013-03-18 14:05:00,
2013-03-18 14:10:00,35.4,32.5,29.47,ENE,78,13.8,13.8,89,0.00,BKN,,0.13,56.0,WeatherDisplay:10.37,2013-03-18 14:10:00,
2013-03-18 14:15:00,35.5,32.3,29.47,ESE,106,17.3,17.3,88,0.00,BKN,,0.13,69.0,WeatherDisplay:10.37,2013-03-18 14:15:00,
2013-03-18 14:20:00,35.5,32.6,29.47,NE,51,13.0,13.0,89,0.00,BKN,,0.13,77.0,WeatherDisplay:10.37,2013-03-18 14:20:00,
2013-03-18 14:25:00,35.6,32.4,29.47,NE,46,5.0,5.0,88,0.00,BKN,,0.13,49.0,WeatherDisplay:10.37,2013-03-18 14:25:00,
2013-03-18 14:30:00,35.6,32.4,29.47,ESE,103,11.5,11.5,88,0.00,BKN,,0.13,54.0,WeatherDisplay:10.37,2013-03-18 14:30:00,
2013-03-18 14:35:00,35.6,32.4,29.47,ESE,105,10.4,10.4,88,0.00,BKN,,0.13,53.0,WeatherDisplay:10.37,2013-03-18 14:35:00,
2013-03-18 14:40:00,35.6,32.4,29.47,East,101,4.6,4.6,88,0.00,BKN,,0.13,63.0,WeatherDisplay:10.37,2013-03-18 14:40:00,
2013-03-18 14:45:00,35.5,32.3,29.48,ESE,121,9.0,9.0,88,0.00,BKN,,0.13,33.0,WeatherDisplay:10.37,2013-03-18 14:45:00,
2013-03-18 14:50:00,35.5,32.3,29.48,ESE,115,9.2,9.2,88,0.00,BKN,,0.13,90.0,WeatherDisplay:10.37,2013-03-18 14:50:00,
2013-03-18 14:55:00,35.5,32.3,29.48,ESE,117,11.5,11.5,88,0.00,BKN,,0.13,51.0,WeatherDisplay:10.37,2013-03-18 14:55:00,
2013-03-18 15:00:00,35.6,32.7,29.48,ENE,76,5.8,5.8,89,0.00,BKN,,0.13,42.0,WeatherDisplay:10.37,2013-03-18 15:00:00,
2013-03-18 15:05:00,35.6,32.4,29.48,ESE,102,13.8,13.8,88,0.00,BKN,,0.13,33.0,WeatherDisplay:10.37,2013-03-18 15:05:00,
2013-03-18 15:10:00,35.6,32.7,29.48,ESE,123,5.8,5.8,89,0.00,OVC,,0.13,39.0,WeatherDisplay:10.37,2013-03-18 15:10:00,
2013-03-18 15:15:00,35.6,32.7,29.48,East,101,10.4,10.4,89,0.00,BKN,,0.13,51.0,WeatherDisplay:10.37,2013-03-18 15:15:00,
2013-03-18 15:20:00,35.5,32.3,29.48,East,94,15.0,15.0,88,0.00,BKN,,0.13,32.0,WeatherDisplay:10.37,2013-03-18 15:20:00,
2013-03-18 15:25:00,35.5,32.6,29.48,ESE,119,9.0,9.0,89,0.00,BKN,,0.13,74.0,WeatherDisplay:10.37,2013-03-18 15:25:00,
2013-03-18 15:30:00,35.4,32.2,29.48,ENE,74,11.5,11.5,88,0.00,BKN,,0.13,142.0,WeatherDisplay:10.37,2013-03-18 15:30:00,
2013-03-18 15:35:00,35.5,32.3,29.48,ESE,107,4.6,4.6,88,0.00,BKN,,0.13,120.0,WeatherDisplay:10.37,2013-03-18 15:35:00,
2013-03-18 15:40:00,35.6,32.4,29.48,East,88,11.5,11.5,88,0.00,BKN,,0.13,70.0,WeatherDisplay:10.37,2013-03-18 15:40:00,
2013-03-18 15:45:00,35.5,32.0,29.48,ENE,76,13.8,13.8,87,0.00,BKN,,0.13,95.0,WeatherDisplay:10.37,2013-03-18 15:45:00,
2013-03-18 15:50:00,35.6,32.4,29.48,SE,130,5.0,5.0,88,0.00,BKN,,0.13,60.0,WeatherDisplay:10.37,2013-03-18 15:50:00,
2013-03-18 15:55:00,35.7,32.2,29.48,ESE,111,4.6,4.6,87,0.00,BKN,,0.13,47.0,WeatherDisplay:10.37,2013-03-18 15:55:00,
2013-03-18 16:00:00,35.6,32.1,29.48,East,96,9.2,9.2,87,0.00,BKN,,0.13,28.0,WeatherDisplay:10.37,2013-03-18 16:00:00,
2013-03-18 16:05:00,35.5,32.0,29.48,NE,37,13.8,13.8,87,0.00,BKN,,0.13,62.0,WeatherDisplay:10.37,2013-03-18 16:05:00,
2013-03-18 16:10:00,35.4,32.2,29.49,SE,129,9.0,9.0,88,0.00,BKN,,0.13,56.0,WeatherDisplay:10.37,2013-03-18 16:10:00,
2013-03-18 16:15:00,35.4,32.2,29.49,East,94,5.8,5.8,88,0.00,BKN,,0.13,79.0,WeatherDisplay:10.37,2013-03-18 16:15:00,
2013-03-18 16:20:00,35.4,32.5,29.49,ENE,78,3.5,3.5,89,0.00,BKN,,0.13,65.0,WeatherDisplay:10.37,2013-03-18 16:20:00,
2013-03-18 16:25:00,35.4,32.2,29.49,ENE,64,9.2,9.2,88,0.00,BKN,,0.13,40.0,WeatherDisplay:10.37,2013-03-18 16:25:00,
2013-03-18 16:30:00,35.3,32.1,29.49,ESE,113,5.8,5.8,88,0.00,BKN,,0.13,35.0,WeatherDisplay:10.37,2013-03-18 16:30:00,
2013-03-18 16:35:00,35.1,31.9,29.49,East,101,8.1,8.1,88,0.00,BKN,,0.13,65.0,WeatherDisplay:10.37,2013-03-18 16:35:00,
2013-03-18 16:40:00,35.1,31.9,29.49,ESE,102,9.2,9.2,88,0.00,BKN,,0.13,69.0,WeatherDisplay:10.37,2013-03-18 16:40:00,
2013-03-18 16:45:00,35.1,32.2,29.49,East,90,4.6,4.6,89,0.00,BKN,,0.13,33.0,WeatherDisplay:10.37,2013-03-18 16:45:00,
2013-03-18 16:50:00,35.1,32.2,29.49,ENE,59,6.9,6.9,89,0.00,BKN,,0.13,19.0,WeatherDisplay:10.37,2013-03-18 16:50:00,
2013-03-18 16:55:00,35.0,32.1,29.49,East,93,4.6,4.6,89,0.00,BKN,,0.13,30.0,WeatherDisplay:10.37,2013-03-18 16:55:00,
2013-03-18 17:00:00,34.8,31.9,29.50,ESE,102,11.5,11.5,89,0.00,BKN,,0.13,104.0,WeatherDisplay:10.37,2013-03-18 17:00:00,
2013-03-18 17:05:00,34.6,31.7,29.49,ENE,62,4.6,4.6,89,0.01,RA,,0.13,72.0,WeatherDisplay:10.37,2013-03-18 17:05:00,
2013-03-18 17:10:00,34.5,31.6,29.50,East,85,5.0,5.0,89,0.01,RA,,0.13,39.0,WeatherDisplay:10.37,2013-03-18 17:10:00,
2013-03-18 17:15:00,34.3,31.4,29.50,ESE,103,11.5,11.5,89,0.01,BKN,,0.13,37.0,WeatherDisplay:10.37,2013-03-18 17:15:00,
2013-03-18 17:20:00,34.0,31.1,29.50,East,80,6.9,6.9,89,0.01,BKN,,0.13,47.0,WeatherDisplay:10.37,2013-03-18 17:20:00,
2013-03-18 17:25:00,33.9,31.3,29.50,ENE,63,11.5,11.5,90,0.02,RA,,0.14,16.0,WeatherDisplay:10.37,2013-03-18 17:25:00,
2013-03-18 17:30:00,33.9,31.3,29.50,ENE,61,5.8,5.8,90,0.02,RA,,0.14,25.0,WeatherDisplay:10.37,2013-03-18 17:30:00,
2013-03-18 17:35:00,33.9,31.6,29.50,ENE,63,3.5,3.5,91,0.02,BKN,,0.14,19.0,WeatherDisplay:10.37,2013-03-18 17:35:00,
2013-03-18 17:40:00,33.9,31.6,29.50,East,91,3.5,3.5,91,0.02,BKN,,0.14,11.0,WeatherDisplay:10.37,2013-03-18 17:40:00,
2013-03-18 17:45:00,33.9,31.6,29.50,East,84,3.5,3.5,91,0.02,BKN,,0.14,12.0,WeatherDisplay:10.37,2013-03-18 17:45:00,
2013-03-18 17:50:00,33.9,31.6,29.50,NE,46,3.5,3.5,91,0.02,BKN,,0.14,16.0,WeatherDisplay:10.37,2013-03-18 17:50:00,
2013-03-18 17:55:00,33.9,31.6,29.50,ESE,121,4.0,4.0,91,0.02,BKN,,0.14,5.0,WeatherDisplay:10.37,2013-03-18 17:55:00,
2013-03-18 18:00:00,33.9,31.6,29.50,East,99,5.8,5.8,91,0.02,BKN,,0.14,5.0,WeatherDisplay:10.37,2013-03-18 18:00:00,
2013-03-18 18:05:00,33.8,31.5,29.50,NE,53,3.5,3.5,91,0.01,BKN,,0.14,5.0,WeatherDisplay:10.37,2013-03-18 18:05:00,
2013-03-18 18:10:00,33.8,31.5,29.50,ENE,78,3.5,5.1,91,0.01,OVC,,0.14,0.0,WeatherDisplay:10.37,2013-03-18 18:10:00,
2013-03-18 18:15:00,33.8,31.5,29.50,East,90,3.5,3.5,91,0.01,OVC,,0.14,0.0,WeatherDisplay:10.37,2013-03-18 18:15:00,
2013-03-18 18:20:00,33.6,31.3,29.50,ENE,61,4.6,4.6,91,0.01,OVC,,0.14,0.0,WeatherDisplay:10.37,2013-03-18 18:20:00,
2013-03-18 18:25:00,33.6,31.3,29.51,ENE,59,2.3,2.3,91,0.00,OVC,,0.14,0.0,WeatherDisplay:10.37,2013-03-18 18:25:00,
2013-03-18 18:30:00,33.5,31.2,29.51,NE,34,4.6,4.6,91,0.00,OVC,,0.14,0.0,WeatherDisplay:10.37,2013-03-18 18:30:00,
2013-03-18 18:35:00,33.4,31.1,29.51,East,91,2.0,2.0,91,0.00,OVC,,0.14,0.0,WeatherDisplay:10.37,2013-03-18 18:35:00,
2013-03-18 18:40:00,33.4,31.1,29.51,East,82,1.1,1.1,91,0.00,OVC,,0.14,0.0,WeatherDisplay:10.37,2013-03-18 18:40:00,
2013-03-18 18:45:00,33.4,31.1,29.51,NE,38,3.5,0.0,91,0.00,OVC,,0.14,0.0,WeatherDisplay:10.37,2013-03-18 18:45:00,
2013-03-18 18:50:00,33.3,31.0,29.52,ESE,116,3.5,3.5,91,0.00,OVC,,0.14,0.0,WeatherDisplay:10.37,2013-03-18 18:50:00,
2013-03-18 18:55:00,33.3,31.0,29.52,North,10,1.1,1.1,91,0.00,CLR,,0.14,0.0,WeatherDisplay:10.37,2013-03-18 18:55:00,
2013-03-18 19:00:00,33.2,30.9,29.52,NE,53,6.9,6.9,91,0.00,CLR,,0.14,0.0,WeatherDisplay:10.37,2013-03-18 19:00:00,
2013-03-18 19:05:00,33.1,30.8,29.52,NNE,19,0.0,0.9,91,0.00,CLR,,0.14,0.0,WeatherDisplay:10.37,2013-03-18 19:05:00,
2013-03-18 19:11:00,33.1,30.8,29.52,North,355,0.0,0.3,91,0.01,RA,,0.15,0.0,WeatherDisplay:10.37,2013-03-18 19:11:00,
2013-03-18 19:16:00,33.0,30.7,29.52,SE,128,3.5,3.5,91,0.01,RA,,0.15,0.0,WeatherDisplay:10.37,2013-03-18 19:16:00,
2013-03-18 19:21:00,32.9,30.6,29.52,ESE,109,3.5,0.0,91,0.01,CLR,,0.15,0.0,WeatherDisplay:10.37,2013-03-18 19:21:00,
2013-03-18 19:26:00,32.8,30.5,29.52,NNE,25,3.5,3.5,91,0.01,CLR,,0.15,0.0,WeatherDisplay:10.37,2013-03-18 19:26:00,
2013-03-18 19:31:00,32.7,30.4,29.52,NNE,25,2.3,2.3,91,0.01,CLR,,0.15,0.0,WeatherDisplay:10.37,2013-03-18 19:31:00,
2013-03-18 19:36:00,32.7,30.4,29.53,ESE,111,6.9,6.9,91,0.01,CLR,,0.15,0.0,WeatherDisplay:10.37,2013-03-18 19:36:00,
2013-03-18 19:41:00,32.7,30.4,29.52,NNW,348,2.3,2.3,91,0.01,CLR,,0.15,0.0,WeatherDisplay:10.37,2013-03-18 19:41:00,
2013-03-18 19:46:00,32.7,30.6,29.52,NNE,24,6.9,6.9,92,0.01,CLR,,0.15,0.0,WeatherDisplay:10.37,2013-03-18 19:46:00,
2013-03-18 19:51:00,32.7,30.6,29.53,North,9,3.5,0.0,92,0.01,CLR,,0.15,0.0,WeatherDisplay:10.37,2013-03-18 19:51:00,
2013-03-18 19:56:00,32.7,30.6,29.52,NE,49,2.3,2.3,92,0.01,CLR,,0.15,0.0,WeatherDisplay:10.37,2013-03-18 19:56:00,
2013-03-18 20:01:00,32.7,30.6,29.53,SE,125,3.5,0.0,92,0.01,CLR,,0.15,0.0,WeatherDisplay:10.37,2013-03-18 20:01:00,
2013-03-18 20:06:00,32.7,30.4,29.53,East,101,2.3,2.3,91,0.01,CLR,,0.15,0.0,WeatherDisplay:10.37,2013-03-18 20:06:00,
2013-03-18 20:11:00,32.7,30.4,29.53,NE,49,5.8,5.8,91,0.00,CLR,,0.15,0.0,WeatherDisplay:10.37,2013-03-18 20:11:00,
2013-03-18 20:16:00,32.7,30.4,29.53,North,360,2.3,2.3,91,0.00,CLR,,0.15,0.0,WeatherDisplay:10.37,2013-03-18 20:16:00,
2013-03-18 20:21:00,32.7,30.6,29.53,NE,51,5.8,5.8,92,0.00,CLR,,0.15,0.0,WeatherDisplay:10.37,2013-03-18 20:21:00,
2013-03-18 20:26:00,32.7,30.6,29.52,NNE,15,2.3,2.3,92,0.00,CLR,,0.15,0.0,WeatherDisplay:10.37,2013-03-18 20:26:00,
2013-03-18 20:31:00,32.7,30.6,29.52,NNE,30,4.0,4.0,92,0.00,CLR,,0.15,0.0,WeatherDisplay:10.37,2013-03-18 20:31:00,
2013-03-18 20:37:00,32.7,30.6,29.52,NE,48,5.8,5.8,92,0.00,CLR,,0.15,0.0,WeatherDisplay:10.37,2013-03-18 20:37:00,
2013-03-18 20:42:00,32.7,30.4,29.53,NE,40,5.0,5.0,91,0.00,CLR,,0.15,0.0,WeatherDisplay:10.37,2013-03-18 20:42:00,
2013-03-18 20:47:00,32.7,30.4,29.52,ENE,57,7.0,7.0,91,0.00,CLR,,0.15,0.0,WeatherDisplay:10.37,2013-03-18 20:47:00,
2013-03-18 20:52:00,32.6,30.3,29.53,North,10,1.1,1.1,91,0.00,CLR,,0.15,0.0,WeatherDisplay:10.37,2013-03-18 20:52:00,
2013-03-18 20:57:00,32.5,30.2,29.52,NNW,346,3.5,3.5,91,0.00,CLR,,0.15,0.0,WeatherDisplay:10.37,2013-03-18 20:57:00,
2013-03-18 21:02:00,32.5,30.2,29.53,East,87,3.5,3.5,91,0.00,CLR,,0.15,0.0,WeatherDisplay:10.37,2013-03-18 21:02:00,
2013-03-18 21:07:00,32.5,30.4,29.52,NNE,25,1.1,1.1,92,0.00,CLR,,0.15,0.0,WeatherDisplay:10.37,2013-03-18 21:07:00,
2013-03-18 21:12:00,32.5,30.4,29.53,NNW,327,3.5,3.5,92,0.00,CLR,,0.15,0.0,WeatherDisplay:10.37,2013-03-18 21:12:00,
2013-03-18 21:17:00,32.4,30.1,29.53,North,360,2.3,2.3,91,0.00,CLR,,0.15,0.0,WeatherDisplay:10.37,2013-03-18 21:17:00,
2013-03-18 21:22:00,32.4,30.1,29.53,NNE,33,3.5,3.5,91,0.00,CLR,,0.15,0.0,WeatherDisplay:10.37,2013-03-18 21:22:00,
2013-03-18 21:27:00,32.3,30.0,29.52,ENE,75,3.5,3.5,91,0.00,CLR,,0.15,0.0,WeatherDisplay:10.37,2013-03-18 21:27:00,
2013-03-18 21:32:00,32.3,30.2,29.52,SSW,199,3.5,3.5,92,0.00,CLR,,0.15,0.0,WeatherDisplay:10.37,2013-03-18 21:32:00,
2013-03-18 21:37:00,32.3,30.2,29.53,ESE,102,3.5,3.5,92,0.00,CLR,,0.15,0.0,WeatherDisplay:10.37,2013-03-18 21:37:00,
2013-03-18 21:42:00,32.3,30.2,29.53,ENE,72,3.5,3.5,92,0.00,CLR,,0.15,0.0,WeatherDisplay:10.37,2013-03-18 21:42:00,
2013-03-18 21:47:00,32.3,30.2,29.53,NE,49,2.3,2.3,92,0.00,CLR,,0.15,0.0,WeatherDisplay:10.37,2013-03-18 21:47:00,
2013-03-18 21:52:00,32.3,30.2,29.52,NE,38,3.5,3.5,92,0.00,CLR,,0.15,0.0,WeatherDisplay:10.37,2013-03-18 21:52:00,
2013-03-18 21:58:00,32.3,30.2,29.53,NE,50,2.3,2.3,92,0.00,CLR,,0.15,0.0,WeatherDisplay:10.37,2013-03-18 21:58:00,
2013-03-18 22:03:00,32.3,30.2,29.53,SE,137,4.6,4.6,92,0.00,CLR,,0.15,0.0,WeatherDisplay:10.37,2013-03-18 22:03:00,
2013-03-18 22:08:00,32.3,30.2,29.53,East,88,6.9,6.9,92,0.00,CLR,,0.15,0.0,WeatherDisplay:10.37,2013-03-18 22:08:00,
2013-03-18 22:13:00,32.3,30.2,29.53,NNE,26,3.5,3.5,92,0.00,CLR,,0.15,0.0,WeatherDisplay:10.37,2013-03-18 22:13:00,
2013-03-18 22:18:00,32.3,30.2,29.53,ESE,119,1.1,0.0,92,0.00,CLR,,0.15,0.0,WeatherDisplay:10.37,2013-03-18 22:18:00,
2013-03-18 22:23:00,32.2,30.1,29.53,NNW,328,3.5,3.5,92,0.00,CLR,,0.15,0.0,WeatherDisplay:10.37,2013-03-18 22:23:00,
2013-03-18 22:28:00,32.2,30.1,29.53,NE,55,3.5,3.5,92,0.00,CLR,,0.15,0.0,WeatherDisplay:10.37,2013-03-18 22:28:00,
2013-03-18 22:33:00,32.3,30.2,29.53,NE,56,5.8,5.8,92,0.00,CLR,,0.15,0.0,WeatherDisplay:10.37,2013-03-18 22:33:00,
2013-03-18 22:38:00,32.3,30.2,29.52,NE,51,6.0,6.0,92,0.00,CLR,,0.15,0.0,WeatherDisplay:10.37,2013-03-18 22:38:00,
2013-03-18 22:43:00,32.2,30.1,29.53,North,360,11.5,11.5,92,0.00,CLR,,0.15,0.0,WeatherDisplay:10.37,2013-03-18 22:43:00,
2013-03-18 22:48:00,32.2,30.1,29.53,North,5,0.0,0.0,92,0.00,CLR,,0.15,0.0,WeatherDisplay:10.37,2013-03-18 22:48:00,
2013-03-18 22:53:00,32.2,30.1,29.53,NNW,348,3.5,3.5,92,0.00,CLR,,0.15,0.0,WeatherDisplay:10.37,2013-03-18 22:53:00,
2013-03-18 22:58:00,32.1,30.0,29.52,NNE,33,3.0,3.0,92,0.00,CLR,,0.15,0.0,WeatherDisplay:10.37,2013-03-18 22:58:00,
2013-03-18 23:03:00,32.1,30.0,29.52,ENE,57,4.0,4.0,92,0.00,CLR,,0.15,0.0,WeatherDisplay:10.37,2013-03-18 23:03:00,
2013-03-18 23:08:00,32.1,30.0,29.52,North,360,3.5,3.5,92,0.00,CLR,,0.15,0.0,WeatherDisplay:10.37,2013-03-18 23:08:00,
2013-03-18 23:13:00,32.1,30.0,29.52,NNW,344,3.5,3.5,92,0.00,CLR,,0.15,0.0,WeatherDisplay:10.37,2013-03-18 23:13:00,
2013-03-18 23:18:00,32.1,30.0,29.53,North,351,1.1,0.0,92,0.00,CLR,,0.15,0.0,WeatherDisplay:10.37,2013-03-18 23:18:00,
2013-03-18 23:23:00,32.2,30.1,29.53,NE,45,4.6,4.6,92,0.00,CLR,,0.15,0.0,WeatherDisplay:10.37,2013-03-18 23:23:00,
2013-03-18 23:28:00,32.2,30.1,29.53,NNE,26,4.0,4.0,92,0.00,CLR,,0.15,0.0,WeatherDisplay:10.37,2013-03-18 23:28:00,
2013-03-18 23:33:00,32.2,30.1,29.53,ENE,60,6.9,6.9,92,0.00,CLR,,0.15,0.0,WeatherDisplay:10.37,2013-03-18 23:33:00,
2013-03-18 23:38:00,32.3,30.2,29.53,East,91,3.5,3.5,92,0.00,CLR,,0.15,0.0,WeatherDisplay:10.37,2013-03-18 23:38:00,
2013-03-18 23:43:00,32.4,30.3,29.53,East,95,6.9,6.9,92,0.00,CLR,,0.15,0.0,WeatherDisplay:10.37,2013-03-18 23:43:00,
2013-03-18 23:48:00,32.4,30.3,29.53,ENE,76,5.8,5.8,92,0.00,CLR,,0.15,0.0,WeatherDisplay:10.37,2013-03-18 23:48:00,
2013-03-18 23:53:00,32.4,30.3,29.53,East,101,11.5,11.5,92,0.00,CLR,,0.15,0.0,WeatherDisplay:10.37,2013-03-18 23:53:00,
2013-03-18 23:58:00,32.3,30.2,29.54,NE,34,2.3,2.3,92,0.00,CLR,,0.15,0.0,WeatherDisplay:10.37,2013-03-18 23:58:00,